createdAt,value
2022-09-09T00:00:41.739Z,11.23
2022-09-09T00:01:56.156Z,8.07
2022-09-09T00:03:15.624Z,9.10
2022-09-09T00:04:37.391Z,9.70
2022-09-09T00:05:57.309Z,8.30
2022-09-09T00:07:29.982Z,13.85
2022-09-09T00:09:18.149Z,7.95
2022-09-09T00:10:42.858Z,11.80
2022-09-09T00:11:53.722Z,7.78
2022-09-09T00:13:17.140Z,9.10
2022-09-09T00:15:01.268Z,13.38
2022-09-09T00:16:17.368Z,12.68
2022-09-09T00:17:48.943Z,7.63
2022-09-09T00:19:25.593Z,8.18
2022-09-09T00:21:16.529Z,11.18
2022-09-09T00:22:24.078Z,11.52
2022-09-09T00:23:45.849Z,9.60
2022-09-09T00:25:11.735Z,11.93
2022-09-09T00:26:41.263Z,11.25
2022-09-09T00:27:50.347Z,8.10
2022-09-09T00:29:32.422Z,11.88
2022-09-09T00:30:38.827Z,8.23
2022-09-09T00:31:41.802Z,8.65
2022-09-09T00:32:45.283Z,8.02
2022-09-09T00:33:50.383Z,6.82
2022-09-09T00:35:24.013Z,10.90
2022-09-09T00:36:30.090Z,10.38
2022-09-09T00:37:36.168Z,9.95
2022-09-09T00:39:02.620Z,11.48
2022-09-09T00:40:27.471Z,10.65
2022-09-09T00:42:09.491Z,7.93
2022-09-09T00:43:33.395Z,11.35
2022-09-09T00:44:39.174Z,9.40
2022-09-09T00:46:16.068Z,7.97
2022-09-09T00:47:52.414Z,7.75
2022-09-09T00:49:29.162Z,12.68
2022-09-09T00:50:53.360Z,6.85
2022-09-09T00:52:43.225Z,11.82
2022-09-09T00:54:17.652Z,9.52
2022-09-09T00:56:06.651Z,13.75
2022-09-09T00:57:26.594Z,12.68
2022-09-09T00:58:29.671Z,9.77
2022-09-09T01:00:05.742Z,7.72
2022-09-09T01:01:14.299Z,9.63
2022-09-09T01:02:53.587Z,8.77
2022-09-09T01:04:00.591Z,7.82
2022-09-09T01:05:55.031Z,10.63
2022-09-09T01:07:18.585Z,10.85
2022-09-09T01:08:56.671Z,9.48
2022-09-09T01:10:05.109Z,11.25
2022-09-09T01:11:21.141Z,8.13
2022-09-09T01:12:39.689Z,14.55
2022-09-09T01:13:46.641Z,11.25
2022-09-09T01:15:00.143Z,12.70
2022-09-09T01:16:12.700Z,8.85
2022-09-09T01:17:35.734Z,9.25
2022-09-09T01:18:53.539Z,11.05
2022-09-09T01:20:06.317Z,12.25
2022-09-09T01:21:51.217Z,8.32
2022-09-09T01:23:35.794Z,8.50
2022-09-09T01:25:22.606Z,18.45
2022-09-09T01:26:42.333Z,8.85
2022-09-09T01:27:55.961Z,15.45
2022-09-09T01:28:59.212Z,9.52
2022-09-09T01:30:16.876Z,11.35
2022-09-09T01:31:28.043Z,16.05
2022-09-09T01:32:51.203Z,7.72
2022-09-09T01:33:54.037Z,10.95
2022-09-09T01:34:58.388Z,7.63
2022-09-09T01:36:22.642Z,10.30
2022-09-09T01:37:27.960Z,10.52
2022-09-09T01:38:32.755Z,7.97
2022-09-09T01:39:38.348Z,10.75
2022-09-09T01:40:45.251Z,6.53
2022-09-09T01:41:48.626Z,8.05
2022-09-09T01:42:55.764Z,8.63
2022-09-09T01:43:59.138Z,9.10
2022-09-09T01:45:02.849Z,10.13
2022-09-09T01:46:06.047Z,10.13
2022-09-09T01:47:11.842Z,9.20
2022-09-09T01:48:30.901Z,13.02
2022-09-09T01:49:43.087Z,7.68
2022-09-09T01:50:55.205Z,8.95
2022-09-09T01:51:59.026Z,10.18
2022-09-09T01:53:10.457Z,10.45
2022-09-09T01:54:13.625Z,10.68
2022-09-09T01:55:17.769Z,12.02
2022-09-09T01:56:32.619Z,12.60
2022-09-09T01:58:12.708Z,9.77
2022-09-09T01:59:52.133Z,10.55
2022-09-09T02:01:42.285Z,10.90
2022-09-09T02:03:20.961Z,9.80
2022-09-09T02:04:52.946Z,9.20
2022-09-09T02:06:38.629Z,10.52
2022-09-09T02:08:07.188Z,8.27
2022-09-09T02:09:23.506Z,13.70
2022-09-09T02:10:53.500Z,12.60
2022-09-09T02:12:14.951Z,10.05
2022-09-09T02:13:24.223Z,11.73
2022-09-09T02:14:36.174Z,10.48
2022-09-09T02:16:01.808Z,13.80
2022-09-09T02:17:14.804Z,11.00
2022-09-09T02:18:56.865Z,14.90
2022-09-09T02:20:15.508Z,13.70
2022-09-09T02:21:29.441Z,13.25
2022-09-09T02:22:35.596Z,8.90
2022-09-09T02:23:43.477Z,8.98
2022-09-09T02:24:51.311Z,9.00
2022-09-09T02:26:01.272Z,10.55
2022-09-09T02:27:09.692Z,9.80
2022-09-09T02:28:15.513Z,9.77
2022-09-09T02:29:32.771Z,8.68
2022-09-09T02:30:39.256Z,9.02
2022-09-09T02:31:44.846Z,13.10
2022-09-09T02:32:57.975Z,9.48
2022-09-09T02:34:12.593Z,8.77
2022-09-09T02:35:21.490Z,10.13
2022-09-09T02:36:28.285Z,12.35
2022-09-09T02:37:39.972Z,10.18
2022-09-09T02:38:53.897Z,13.35
2022-09-09T02:40:00.327Z,11.63
2022-09-09T02:41:03.730Z,11.95
2022-09-09T02:42:08.181Z,11.77
2022-09-09T02:43:11.329Z,10.43
2022-09-09T02:44:19.371Z,12.63
2022-09-09T02:45:33.106Z,15.10
2022-09-09T02:46:57.341Z,9.70
2022-09-09T02:48:23.963Z,10.27
2022-09-09T02:49:51.115Z,14.10
2022-09-09T02:51:25.142Z,13.88
2022-09-09T02:52:46.511Z,12.05
2022-09-09T02:54:24.968Z,11.63
2022-09-09T02:55:56.062Z,15.50
2022-09-09T02:57:15.652Z,11.68
2022-09-09T02:58:20.215Z,11.73
2022-09-09T02:59:34.711Z,17.58
2022-09-09T03:00:38.260Z,13.40
2022-09-09T03:01:41.254Z,11.15
2022-09-09T03:02:46.429Z,11.60
2022-09-09T03:03:49.431Z,11.05
2022-09-09T03:04:53.756Z,13.05
2022-09-09T03:05:58.095Z,9.88
2022-09-09T03:07:04.730Z,11.43
2022-09-09T03:08:07.817Z,12.95
2022-09-09T03:09:11.567Z,11.45
2022-09-09T03:10:15.104Z,10.60
2022-09-09T03:11:18.600Z,12.20
2022-09-09T03:12:21.903Z,11.63
2022-09-09T03:13:26.271Z,11.70
2022-09-09T03:14:29.307Z,15.65
2022-09-09T03:15:34.332Z,10.32
2022-09-09T03:16:37.472Z,10.95
2022-09-09T03:17:40.503Z,15.73
2022-09-09T03:18:43.684Z,16.17
2022-09-09T03:19:46.838Z,11.68
2022-09-09T03:20:50.157Z,11.20
2022-09-09T03:21:53.705Z,13.23
2022-09-09T03:22:57.383Z,14.02
2022-09-09T03:24:00.761Z,17.98
2022-09-09T03:25:04.171Z,13.05
2022-09-09T03:26:08.204Z,12.75
2022-09-09T03:27:16.772Z,11.60
2022-09-09T03:28:21.269Z,12.18
2022-09-09T03:29:25.972Z,11.00
2022-09-09T03:30:31.661Z,13.55
2022-09-09T03:31:36.974Z,11.85
2022-09-09T03:32:41.332Z,12.50
2022-09-09T03:33:44.299Z,10.70
2022-09-09T03:34:53.172Z,12.82
2022-09-09T03:35:57.465Z,17.02
2022-09-09T03:37:00.383Z,12.38
2022-09-09T03:38:05.194Z,11.10
2022-09-09T03:39:10.302Z,14.10
2022-09-09T03:40:14.207Z,12.82
2022-09-09T03:41:19.427Z,12.88
2022-09-09T03:42:22.989Z,12.43
2022-09-09T03:43:30.295Z,9.88
2022-09-09T03:44:33.312Z,10.60
2022-09-09T03:45:36.953Z,8.68
2022-09-09T03:46:39.921Z,11.77
2022-09-09T03:47:42.685Z,18.25
2022-09-09T03:48:46.015Z,15.15
2022-09-09T03:49:49.367Z,19.52
2022-09-09T03:50:54.681Z,14.93
2022-09-09T03:51:58.559Z,10.40
2022-09-09T03:53:01.467Z,13.05
2022-09-09T03:54:06.109Z,16.42
2022-09-09T03:55:12.628Z,10.82
2022-09-09T03:56:15.826Z,11.95
2022-09-09T03:57:18.851Z,9.40
2022-09-09T03:58:25.349Z,8.38
2022-09-09T03:59:29.296Z,11.82
2022-09-09T04:00:33.051Z,11.02
2022-09-09T04:01:36.047Z,8.95
2022-09-09T04:02:40.288Z,8.23
2022-09-09T04:03:43.496Z,11.07
2022-09-09T04:04:46.337Z,9.80
2022-09-09T04:05:53.910Z,11.90
2022-09-09T04:06:57.307Z,9.43
2022-09-09T04:08:00.177Z,9.40
2022-09-09T04:09:04.361Z,11.25
2022-09-09T04:10:09.499Z,14.60
2022-09-09T04:11:15.010Z,14.88
2022-09-09T04:12:18.947Z,12.60
2022-09-09T04:13:22.546Z,12.68
2022-09-09T04:14:29.060Z,8.48
2022-09-09T04:15:33.397Z,9.10
2022-09-09T04:16:38.450Z,12.05
2022-09-09T04:17:41.471Z,12.90
2022-09-09T04:18:44.870Z,9.63
2022-09-09T04:19:50.073Z,10.68
2022-09-09T04:20:54.211Z,13.27
2022-09-09T04:22:00.237Z,11.07
2022-09-09T04:23:03.190Z,9.48
2022-09-09T04:24:06.695Z,9.73
2022-09-09T04:25:09.685Z,11.63
2022-09-09T04:26:12.520Z,10.27
2022-09-09T04:27:16.021Z,9.55
2022-09-09T04:28:22.185Z,14.70
2022-09-09T04:29:25.114Z,9.77
2022-09-09T04:30:28.618Z,9.23
2022-09-09T04:31:32.599Z,11.93
2022-09-09T04:32:36.921Z,10.65
2022-09-09T04:33:40.742Z,10.00
2022-09-09T04:34:46.085Z,9.85
2022-09-09T04:35:51.144Z,8.40
2022-09-09T04:36:57.333Z,10.15
2022-09-09T04:38:00.693Z,9.00
2022-09-09T04:39:04.433Z,8.60
2022-09-09T04:40:10.730Z,10.20
2022-09-09T04:41:14.121Z,9.57
2022-09-09T04:42:20.600Z,9.65
2022-09-09T04:43:26.212Z,11.93
2022-09-09T04:44:29.295Z,8.02
2022-09-09T04:45:32.378Z,13.35
2022-09-09T04:46:35.438Z,14.68
2022-09-09T04:47:39.031Z,10.13
2022-09-09T04:48:41.887Z,11.13
2022-09-09T04:49:46.200Z,9.48
2022-09-09T04:51:01.135Z,8.43
2022-09-09T04:52:05.391Z,11.23
2022-09-09T04:53:10.219Z,11.63
2022-09-09T04:54:14.451Z,10.45
2022-09-09T04:55:19.702Z,8.82
2022-09-09T04:56:22.916Z,6.82
2022-09-09T04:57:34.078Z,8.15
2022-09-09T04:58:38.224Z,7.35
2022-09-09T04:59:42.485Z,12.27
2022-09-09T05:00:45.869Z,10.43
2022-09-09T05:01:51.183Z,9.65
2022-09-09T05:02:54.314Z,10.32
2022-09-09T05:03:57.301Z,9.68
2022-09-09T05:05:01.160Z,8.65
2022-09-09T05:06:10.728Z,7.88
2022-09-09T05:07:15.025Z,8.68
2022-09-09T05:08:19.144Z,9.07
2022-09-09T05:09:22.063Z,13.25
2022-09-09T05:10:24.951Z,14.18
2022-09-09T05:11:31.971Z,9.30
2022-09-09T05:13:07.642Z,9.85
2022-09-09T05:14:12.501Z,7.95
2022-09-09T05:15:15.492Z,9.07
2022-09-09T05:16:20.094Z,8.23
2022-09-09T05:17:23.013Z,7.85
2022-09-09T05:18:25.971Z,7.97
2022-09-09T05:19:28.837Z,9.95
2022-09-09T05:20:32.814Z,7.82
2022-09-09T05:21:36.108Z,9.02
2022-09-09T05:22:38.963Z,9.57
2022-09-09T05:23:41.922Z,9.10
2022-09-09T05:24:45.257Z,8.05
2022-09-09T05:25:58.254Z,11.30
2022-09-09T05:27:03.371Z,12.07
2022-09-09T05:28:08.654Z,9.60
2022-09-09T05:29:11.773Z,7.07
2022-09-09T05:30:15.145Z,6.07
2022-09-09T05:31:20.149Z,6.47
2022-09-09T05:32:26.223Z,10.50
2022-09-09T05:33:30.127Z,9.57
2022-09-09T05:34:33.085Z,5.82
2022-09-09T05:35:37.219Z,11.13
2022-09-09T05:36:40.462Z,6.95
2022-09-09T05:37:43.350Z,8.23
2022-09-09T05:38:46.559Z,8.35
2022-09-09T05:39:50.188Z,8.18
2022-09-09T05:40:54.638Z,7.45
2022-09-09T05:41:58.329Z,7.90
2022-09-09T05:43:01.971Z,9.40
2022-09-09T05:44:05.188Z,5.55
2022-09-09T05:45:12.531Z,7.65
2022-09-09T05:46:19.990Z,7.25
2022-09-09T05:47:24.293Z,9.40
2022-09-09T05:48:30.968Z,8.82
2022-09-09T05:49:33.815Z,9.85
2022-09-09T05:50:36.766Z,7.70
2022-09-09T05:51:39.692Z,6.97
2022-09-09T05:52:46.694Z,8.00
2022-09-09T05:53:51.985Z,8.98
2022-09-09T05:54:56.177Z,11.25
2022-09-09T05:56:04.980Z,9.82
2022-09-09T05:57:10.000Z,7.47
2022-09-09T05:58:13.103Z,6.95
2022-09-09T05:59:16.001Z,6.50
2022-09-09T06:00:19.385Z,5.28
2022-09-09T06:01:30.408Z,7.35
2022-09-09T06:03:39.881Z,6.47
2022-09-09T06:04:42.921Z,5.93
2022-09-09T06:05:45.768Z,7.20
2022-09-09T06:06:49.812Z,8.10
2022-09-09T06:07:55.140Z,7.55
2022-09-09T06:08:59.216Z,6.35
2022-09-09T06:10:07.519Z,7.03
2022-09-09T06:11:17.884Z,10.30
2022-09-09T06:12:21.938Z,5.90
2022-09-09T06:13:25.128Z,6.55
2022-09-09T06:14:28.381Z,8.60
2022-09-09T06:15:35.354Z,6.70
2022-09-09T06:16:39.057Z,6.72
2022-09-09T06:17:48.343Z,4.30
2022-09-09T06:18:52.201Z,6.15
2022-09-09T06:19:55.098Z,6.15
2022-09-09T06:20:59.918Z,8.13
2022-09-09T06:22:02.716Z,6.63
2022-09-09T06:23:08.012Z,8.20
2022-09-09T06:24:11.293Z,5.25
2022-09-09T06:25:15.357Z,7.53
2022-09-09T06:26:25.196Z,4.60
2022-09-09T06:27:29.875Z,8.88
2022-09-09T06:28:34.887Z,4.47
2022-09-09T06:29:38.079Z,6.20
2022-09-09T06:30:41.179Z,3.92
2022-09-09T06:31:44.147Z,4.93
2022-09-09T06:32:52.318Z,4.30
2022-09-09T06:33:56.194Z,5.32
2022-09-09T06:35:02.362Z,6.85
2022-09-09T06:36:06.106Z,5.30
2022-09-09T06:37:09.560Z,4.47
2022-09-09T06:38:17.479Z,6.82
2022-09-09T06:39:20.436Z,5.88
2022-09-09T06:40:23.339Z,6.78
2022-09-09T06:41:30.036Z,5.00
2022-09-09T06:42:33.394Z,5.43
2022-09-09T06:43:57.746Z,5.45
2022-09-09T06:45:09.964Z,4.78
2022-09-09T06:46:31.240Z,10.10
2022-09-09T06:47:34.847Z,4.50
2022-09-09T06:48:41.798Z,5.82
2022-09-09T06:49:48.357Z,5.82
2022-09-09T06:50:52.170Z,5.32
2022-09-09T06:51:55.591Z,5.97
2022-09-09T06:52:58.591Z,3.95
2022-09-09T06:54:03.389Z,4.05
2022-09-09T06:55:07.259Z,5.00
2022-09-09T06:56:28.971Z,4.28
2022-09-09T06:57:37.363Z,4.45
2022-09-09T06:58:45.139Z,5.03
2022-09-09T06:59:52.306Z,8.10
2022-09-09T07:01:08.701Z,5.53
2022-09-09T07:02:12.232Z,5.88
2022-09-09T07:03:15.547Z,5.50
2022-09-09T07:04:18.645Z,6.10
2022-09-09T07:05:22.263Z,6.60
2022-09-09T07:06:28.774Z,3.72
2022-09-09T07:07:32.085Z,4.40
2022-09-09T07:08:36.029Z,5.38
2022-09-09T07:09:39.194Z,4.75
2022-09-09T07:10:42.082Z,6.72
2022-09-09T07:11:53.675Z,6.13
2022-09-09T07:12:58.185Z,7.18
2022-09-09T07:14:02.384Z,5.78
2022-09-09T07:15:06.409Z,6.35
2022-09-09T07:16:12.929Z,5.63
2022-09-09T07:17:16.773Z,4.65
2022-09-09T07:18:20.870Z,9.40
2022-09-09T07:19:23.780Z,6.15
2022-09-09T07:20:29.299Z,3.92
2022-09-09T07:21:34.542Z,4.00
2022-09-09T07:22:37.624Z,4.75
2022-09-09T07:23:41.994Z,7.57
2022-09-09T07:24:46.174Z,4.20
2022-09-09T07:25:51.365Z,5.20
2022-09-09T07:26:54.209Z,3.78
2022-09-09T07:27:57.906Z,6.45
2022-09-09T07:29:01.538Z,5.20
2022-09-09T07:30:06.169Z,7.10
2022-09-09T07:31:21.514Z,5.35
2022-09-09T07:32:26.544Z,5.60
2022-09-09T07:33:31.652Z,4.95
2022-09-09T07:34:34.823Z,3.90
2022-09-09T07:35:38.647Z,3.63
2022-09-09T07:36:43.195Z,4.03
2022-09-09T07:37:51.031Z,5.32
2022-09-09T07:39:18.958Z,6.80
2022-09-09T07:40:29.212Z,4.05
2022-09-09T07:41:40.971Z,7.55
2022-09-09T07:42:44.638Z,5.97
2022-09-09T07:43:49.813Z,6.38
2022-09-09T07:44:55.921Z,5.32
2022-09-09T07:45:59.928Z,5.57
2022-09-09T07:47:04.413Z,5.78
2022-09-09T07:48:18.154Z,5.45
2022-09-09T07:49:27.429Z,5.68
2022-09-09T07:50:32.914Z,3.22
2022-09-09T07:51:42.742Z,5.15
2022-09-09T07:52:46.122Z,7.28
2022-09-09T07:53:53.741Z,4.78
2022-09-09T07:54:58.056Z,5.28
2022-09-09T07:56:10.389Z,5.63
2022-09-09T07:57:13.637Z,8.38
2022-09-09T07:58:16.407Z,9.32
2022-09-09T07:59:19.871Z,4.47
2022-09-09T08:00:25.023Z,5.78
2022-09-09T08:01:41.909Z,3.88
2022-09-09T08:02:45.513Z,6.07
2022-09-09T08:04:02.171Z,7.97
2022-09-09T08:05:07.182Z,5.63
2022-09-09T08:06:10.563Z,4.38
2022-09-09T08:07:14.205Z,6.47
2022-09-09T08:08:23.111Z,4.50
2022-09-09T08:09:29.918Z,5.57
2022-09-09T08:10:53.868Z,5.72
2022-09-09T08:11:58.190Z,3.80
2022-09-09T08:13:17.414Z,8.35
2022-09-09T08:14:21.566Z,5.60
2022-09-09T08:15:24.488Z,9.95
2022-09-09T08:16:34.444Z,6.07
2022-09-09T08:17:38.896Z,7.82
2022-09-09T08:18:44.209Z,4.68
2022-09-09T08:19:47.226Z,6.28
2022-09-09T08:20:54.655Z,4.85
2022-09-09T08:21:57.708Z,5.75
2022-09-09T08:23:00.651Z,5.72
2022-09-09T08:24:05.956Z,5.82
2022-09-09T08:25:09.608Z,6.45
2022-09-09T08:26:23.245Z,5.80
2022-09-09T08:27:26.638Z,5.63
2022-09-09T08:28:31.759Z,5.25
2022-09-09T08:29:34.897Z,8.25
2022-09-09T08:30:38.436Z,6.13
2022-09-09T08:31:48.075Z,6.63
2022-09-09T08:32:53.871Z,7.72
2022-09-09T08:34:00.635Z,7.15
2022-09-09T08:35:08.231Z,9.13
2022-09-09T08:36:16.369Z,8.50
2022-09-09T08:37:20.474Z,9.23
2022-09-09T08:38:23.340Z,13.88
2022-09-09T08:39:26.405Z,7.25
2022-09-09T08:40:38.440Z,6.40
2022-09-09T08:42:06.322Z,7.07
2022-09-09T08:43:13.919Z,5.45
2022-09-09T08:44:39.912Z,6.57
2022-09-09T08:46:14.853Z,6.18
2022-09-09T08:47:42.012Z,8.77
2022-09-09T08:49:02.850Z,10.30
2022-09-09T08:51:34.475Z,6.78
2022-09-09T08:52:51.945Z,7.35
2022-09-09T08:53:59.986Z,7.97
2022-09-09T08:55:38.135Z,6.18
2022-09-09T08:56:41.228Z,9.20
2022-09-09T08:57:46.114Z,9.52
2022-09-09T08:58:52.554Z,8.85
2022-09-09T09:00:15.832Z,11.90
2022-09-09T09:02:16.928Z,7.38
2022-09-09T09:03:26.997Z,7.97
2022-09-09T09:05:07.609Z,8.40
2022-09-09T09:06:31.480Z,13.27
2022-09-09T09:08:05.055Z,14.10
2022-09-09T09:09:34.492Z,10.35
2022-09-09T09:10:54.492Z,12.00
2022-09-09T09:12:03.421Z,12.68
2022-09-09T09:13:31.220Z,9.27
2022-09-09T09:14:38.738Z,9.55
2022-09-09T09:15:50.479Z,8.65
2022-09-09T09:17:18.244Z,11.45
2022-09-09T09:18:21.428Z,10.13
2022-09-09T09:19:27.248Z,12.48
2022-09-09T09:20:53.471Z,13.02
2022-09-09T09:22:21.661Z,10.63
2022-09-09T09:23:34.271Z,14.25
2022-09-09T09:24:45.535Z,11.98
2022-09-09T09:25:51.167Z,12.63
2022-09-09T09:26:55.261Z,11.68
2022-09-09T09:28:06.775Z,11.07
2022-09-09T09:29:19.926Z,15.25
2022-09-09T09:30:30.576Z,12.20
2022-09-09T09:31:39.354Z,11.52
2022-09-09T09:33:01.685Z,13.38
2022-09-09T09:34:05.591Z,16.83
2022-09-09T09:35:14.028Z,13.35
2022-09-09T09:36:18.548Z,9.90
2022-09-09T09:37:36.496Z,9.40
2022-09-09T09:40:19.527Z,9.95
2022-09-09T09:41:40.972Z,11.80
2022-09-09T09:43:02.443Z,13.30
2022-09-09T09:44:22.706Z,12.50
2022-09-09T09:45:35.175Z,14.25
2022-09-09T09:46:39.996Z,11.95
2022-09-09T09:47:48.083Z,14.13
2022-09-09T09:49:09.769Z,15.02
2022-09-09T09:50:21.731Z,13.48
2022-09-09T09:51:30.203Z,11.80
2022-09-09T09:52:35.980Z,15.32
2022-09-09T09:53:40.456Z,14.05
2022-09-09T09:54:45.185Z,13.30
2022-09-09T09:55:59.040Z,11.88
2022-09-09T09:57:17.522Z,15.48
2022-09-09T09:58:22.661Z,18.60
2022-09-09T09:59:39.639Z,12.43
2022-09-09T10:00:51.675Z,14.35
2022-09-09T10:01:56.015Z,16.80
2022-09-09T10:03:01.855Z,14.35
2022-09-09T10:04:24.179Z,11.93
2022-09-09T10:05:35.984Z,15.45
2022-09-09T10:06:44.003Z,16.92
2022-09-09T10:07:47.293Z,19.00
2022-09-09T10:08:50.153Z,19.77
2022-09-09T10:09:58.790Z,16.02
2022-09-09T10:11:25.497Z,13.95
2022-09-09T10:12:53.284Z,16.30
2022-09-09T10:14:24.064Z,12.90
2022-09-09T10:15:43.665Z,15.32
2022-09-09T10:17:10.982Z,13.45
2022-09-09T10:18:58.760Z,14.43
2022-09-09T10:20:32.252Z,15.73
2022-09-09T10:21:53.187Z,15.02
2022-09-09T10:24:56.061Z,21.77
2022-09-09T10:26:23.205Z,20.30
2022-09-09T10:27:38.110Z,16.08
2022-09-09T10:29:13.452Z,20.70
2022-09-09T10:30:40.783Z,20.10
2022-09-09T10:32:23.458Z,18.35
2022-09-09T10:33:52.244Z,21.83
2022-09-09T10:36:01.116Z,17.42
2022-09-09T10:37:31.777Z,16.80
2022-09-09T10:38:48.494Z,17.65
2022-09-09T10:40:27.275Z,19.88
2022-09-09T10:42:03.361Z,16.27
2022-09-09T10:43:44.117Z,22.40
2022-09-09T10:45:16.749Z,19.75
2022-09-09T10:46:39.838Z,21.27
2022-09-09T10:48:12.154Z,22.02
2022-09-09T10:49:26.151Z,17.67
2022-09-09T10:51:05.246Z,14.73
2022-09-09T10:52:34.948Z,18.88
2022-09-09T10:53:58.661Z,19.73
2022-09-09T10:55:34.341Z,17.23
2022-09-09T10:56:38.840Z,21.95
2022-09-09T10:57:54.926Z,22.42
2022-09-09T10:59:18.551Z,25.77
2022-09-09T11:00:46.406Z,19.20
2022-09-09T11:02:23.604Z,20.73
2022-09-09T11:03:34.557Z,18.75
2022-09-09T11:04:51.717Z,21.75
2022-09-09T11:06:05.246Z,20.02
2022-09-09T11:07:15.584Z,25.00
2022-09-09T11:08:29.163Z,18.90
2022-09-09T11:09:40.396Z,19.65
2022-09-09T11:11:05.577Z,19.58
2022-09-09T11:12:16.537Z,19.23
2022-09-09T11:13:55.449Z,21.02
2022-09-09T11:15:07.826Z,20.58
2022-09-09T11:16:43.540Z,20.65
2022-09-09T11:18:00.618Z,22.08
2022-09-09T11:19:29.220Z,25.30
2022-09-09T11:20:33.211Z,18.60
2022-09-09T11:21:46.028Z,20.40
2022-09-09T11:23:06.550Z,22.73
2022-09-09T11:24:42.014Z,20.13
2022-09-09T11:25:53.821Z,24.08
2022-09-09T11:27:38.537Z,21.70
2022-09-09T11:28:42.016Z,23.35
2022-09-09T11:30:02.068Z,24.88
2022-09-09T11:31:36.095Z,19.92
2022-09-09T11:33:16.919Z,26.50
2022-09-09T11:35:04.079Z,25.40
2022-09-09T11:36:36.115Z,22.05
2022-09-09T11:37:59.325Z,22.33
2022-09-09T11:39:27.685Z,24.17
2022-09-09T11:40:33.850Z,24.10
2022-09-09T11:41:38.484Z,20.77
2022-09-09T11:42:43.104Z,24.98
2022-09-09T11:43:53.202Z,20.23
2022-09-09T11:44:57.756Z,19.95
2022-09-09T11:46:04.448Z,24.55
2022-09-09T11:47:32.535Z,25.92
2022-09-09T11:48:39.549Z,22.98
2022-09-09T11:49:44.152Z,26.60
2022-09-09T11:50:47.193Z,24.05
2022-09-09T11:51:50.619Z,22.05
2022-09-09T11:53:14.936Z,28.40
2022-09-09T11:54:45.621Z,22.98
2022-09-09T11:55:49.141Z,23.52
2022-09-09T11:56:51.918Z,24.17
2022-09-09T11:58:12.026Z,25.05
2022-09-09T11:59:31.143Z,19.95
2022-09-09T12:00:45.503Z,24.05
2022-09-09T12:01:58.227Z,23.40
2022-09-09T12:03:01.186Z,23.63
2022-09-09T12:04:26.727Z,27.35
2022-09-09T12:05:46.921Z,25.15
2022-09-09T12:07:00.257Z,21.98
2022-09-09T12:08:04.817Z,26.50
2022-09-09T12:09:49.560Z,23.02
2022-09-09T12:11:04.175Z,28.45
2022-09-09T12:12:32.029Z,24.63
2022-09-09T12:13:35.059Z,23.60
2022-09-09T12:14:55.460Z,26.30
2022-09-09T12:16:01.736Z,22.48
2022-09-09T12:17:17.449Z,26.05
2022-09-09T12:18:40.465Z,28.05
2022-09-09T12:19:43.367Z,24.75
2022-09-09T12:21:10.043Z,25.27
2022-09-09T12:22:37.208Z,27.65
2022-09-09T12:23:59.236Z,25.67
2022-09-09T12:25:06.645Z,24.95
2022-09-09T12:26:39.765Z,22.33
2022-09-09T12:28:17.617Z,23.25
2022-09-09T12:29:20.437Z,23.58
2022-09-09T12:30:27.642Z,27.95
2022-09-09T12:31:51.115Z,24.83
2022-09-09T12:33:14.309Z,24.52
2022-09-09T12:34:38.190Z,25.77
2022-09-09T12:35:45.331Z,28.60
2022-09-09T12:36:59.182Z,21.75
2022-09-09T12:38:04.220Z,26.05
2022-09-09T12:39:28.376Z,22.55
2022-09-09T12:40:40.199Z,27.67
2022-09-09T12:41:51.483Z,33.00
2022-09-09T12:42:56.220Z,32.75
2022-09-09T12:44:11.171Z,27.98
2022-09-09T12:45:22.360Z,28.50
2022-09-09T12:46:45.127Z,26.48
2022-09-09T12:48:08.389Z,33.65
2022-09-09T12:49:35.527Z,29.25
2022-09-09T12:50:51.597Z,27.75
2022-09-09T12:51:54.741Z,28.52
2022-09-09T12:53:03.034Z,27.38
2022-09-09T12:54:06.318Z,27.95
2022-09-09T12:55:17.812Z,31.98
2022-09-09T12:56:30.144Z,28.70
2022-09-09T12:57:40.250Z,34.15
2022-09-09T12:58:49.378Z,31.00
2022-09-09T12:59:52.835Z,33.47
2022-09-09T13:00:58.420Z,31.00
2022-09-09T13:02:01.492Z,28.10
2022-09-09T13:03:21.775Z,27.98
2022-09-09T13:04:24.831Z,27.73
2022-09-09T13:05:39.969Z,35.53
2022-09-09T13:06:43.071Z,29.60
2022-09-09T13:07:46.169Z,24.83
2022-09-09T13:08:49.281Z,33.70
2022-09-09T13:09:52.307Z,30.85
2022-09-09T13:11:03.151Z,29.52
2022-09-09T13:12:08.310Z,28.77
2022-09-09T13:13:21.664Z,26.95
2022-09-09T13:14:38.334Z,29.23
2022-09-09T13:15:49.673Z,33.03
2022-09-09T13:17:06.645Z,30.27
2022-09-09T13:18:14.276Z,30.23
2022-09-09T13:19:18.310Z,32.72
2022-09-09T13:20:23.249Z,27.95
2022-09-09T13:21:40.606Z,33.58
2022-09-09T13:22:43.629Z,39.33
2022-09-09T13:23:53.375Z,30.95
2022-09-09T13:25:12.058Z,34.08
2022-09-09T13:26:28.376Z,32.65
2022-09-09T13:27:39.876Z,34.60
2022-09-09T13:28:42.924Z,30.67
2022-09-09T13:29:56.153Z,33.97
2022-09-09T13:31:24.714Z,30.27
2022-09-09T13:32:29.088Z,30.65
2022-09-09T13:33:39.588Z,33.35
2022-09-09T13:35:00.479Z,28.50
2022-09-09T13:36:11.551Z,27.58
2022-09-09T13:37:43.713Z,29.38
2022-09-09T13:38:52.680Z,32.58
2022-09-09T13:39:56.150Z,36.10
2022-09-09T13:41:05.826Z,33.90
2022-09-09T13:42:33.589Z,35.55
2022-09-09T13:43:43.170Z,35.42
2022-09-09T13:44:48.066Z,33.45
2022-09-09T13:46:01.168Z,33.15
2022-09-09T13:47:10.550Z,32.78
2022-09-09T13:48:20.321Z,35.92
2022-09-09T13:49:24.329Z,30.92
2022-09-09T13:50:31.746Z,30.98
2022-09-09T13:51:40.381Z,32.10
2022-09-09T13:52:43.323Z,29.25
2022-09-09T13:53:48.170Z,34.40
2022-09-09T13:54:52.545Z,33.00
2022-09-09T13:55:55.566Z,32.42
2022-09-09T13:56:58.488Z,30.42
2022-09-09T13:58:06.230Z,35.50
2022-09-09T13:59:21.083Z,36.70
2022-09-09T14:00:25.271Z,30.13
2022-09-09T14:01:29.663Z,33.45
2022-09-09T14:02:33.018Z,30.80
2022-09-09T14:03:35.997Z,28.00
2022-09-09T14:04:39.106Z,35.05
2022-09-09T14:05:43.297Z,33.03
2022-09-09T14:06:46.218Z,32.45
2022-09-09T14:07:53.194Z,37.88
2022-09-09T14:08:56.761Z,39.10
2022-09-09T14:10:01.336Z,30.92
2022-09-09T14:11:05.569Z,40.97
2022-09-09T14:12:16.440Z,33.75
2022-09-09T14:13:19.548Z,37.35
2022-09-09T14:14:22.601Z,35.40
2022-09-09T14:15:25.559Z,37.60
2022-09-09T14:16:30.293Z,36.65
2022-09-09T14:17:37.171Z,44.17
2022-09-09T14:18:40.159Z,33.35
2022-09-09T14:19:43.806Z,34.17
2022-09-09T14:20:46.812Z,34.42
2022-09-09T14:21:49.743Z,34.55
2022-09-09T14:22:54.517Z,36.67
2022-09-09T14:23:59.125Z,34.50
2022-09-09T14:25:02.641Z,31.52
2022-09-09T14:26:07.080Z,35.13
2022-09-09T14:27:09.907Z,32.45
2022-09-09T14:28:14.620Z,36.05
2022-09-09T14:29:17.675Z,36.83
2022-09-09T14:30:20.736Z,36.05
2022-09-09T14:31:26.737Z,33.33
2022-09-09T14:32:30.300Z,36.33
2022-09-09T14:33:33.878Z,33.92
2022-09-09T14:34:36.731Z,33.15
2022-09-09T14:35:40.250Z,36.65
2022-09-09T14:36:43.148Z,36.88
2022-09-09T14:37:46.127Z,41.35
2022-09-09T14:38:49.212Z,39.00
2022-09-09T14:39:52.166Z,36.35
2022-09-09T14:40:55.025Z,41.20
2022-09-09T14:41:57.907Z,38.55
2022-09-09T14:43:00.868Z,34.83
2022-09-09T14:44:03.942Z,30.60
2022-09-09T14:45:07.906Z,36.80
2022-09-09T14:46:17.383Z,41.15
2022-09-09T14:47:20.324Z,41.53
2022-09-09T14:48:23.305Z,37.97
2022-09-09T14:49:26.241Z,39.67
2022-09-09T14:50:30.070Z,38.78
2022-09-09T14:51:33.215Z,36.20
2022-09-09T14:52:36.284Z,43.70
2022-09-09T14:53:40.316Z,38.13
2022-09-09T14:54:43.341Z,38.65
2022-09-09T14:55:47.832Z,37.55
2022-09-09T14:56:50.962Z,50.42
2022-09-09T14:57:53.790Z,32.47
2022-09-09T14:58:58.708Z,38.58
2022-09-09T15:00:02.016Z,37.90
2022-09-09T15:01:11.962Z,39.03
2022-09-09T15:02:15.126Z,37.85
2022-09-09T15:03:18.152Z,47.00
2022-09-09T15:04:21.531Z,43.25
2022-09-09T15:05:25.450Z,35.90
2022-09-09T15:06:32.696Z,38.40
2022-09-09T15:07:35.593Z,36.22
2022-09-09T15:08:42.472Z,41.20
2022-09-09T15:09:45.890Z,39.10
2022-09-09T15:10:48.721Z,39.90
2022-09-09T15:11:51.635Z,39.90
2022-09-09T15:12:54.558Z,35.97
2022-09-09T15:13:57.900Z,41.00
2022-09-09T15:15:00.870Z,37.63
2022-09-09T15:16:17.106Z,36.90
2022-09-09T15:17:19.969Z,39.55
2022-09-09T15:18:23.262Z,42.05
2022-09-09T15:19:26.379Z,35.90
2022-09-09T15:20:29.262Z,31.90
2022-09-09T15:21:36.380Z,38.42
2022-09-09T15:22:39.385Z,41.08
2022-09-09T15:23:42.711Z,42.55
2022-09-09T15:24:45.612Z,41.95
2022-09-09T15:25:56.207Z,36.03
2022-09-09T15:26:59.363Z,39.63
2022-09-09T15:28:02.298Z,35.00
2022-09-09T15:29:05.187Z,39.90
2022-09-09T15:30:09.057Z,42.03
2022-09-09T15:31:24.953Z,45.30
2022-09-09T15:32:28.621Z,42.65
2022-09-09T15:33:31.457Z,42.05
2022-09-09T15:34:34.378Z,36.25